createdAt,value
2019-06-15T00:02:22.046Z,13.43
2019-06-15T00:04:50.788Z,13.43
2019-06-15T00:07:19.446Z,13.41
2019-06-15T00:09:48.052Z,13.39
2019-06-15T00:12:16.774Z,13.38
2019-06-15T00:14:45.458Z,13.38
2019-06-15T00:17:14.087Z,13.39
2019-06-15T00:19:47.152Z,13.41
2019-06-15T00:22:15.903Z,13.41
2019-06-15T00:24:44.600Z,13.40
2019-06-15T00:27:14.798Z,13.40
2019-06-15T00:29:44.272Z,13.41
2019-06-15T00:32:18.036Z,13.41
2019-06-15T00:35:01.872Z,13.41
2019-06-15T00:37:31.049Z,13.42
2019-06-15T00:40:01.264Z,13.43
2019-06-15T00:42:29.986Z,13.41
2019-06-15T00:44:59.456Z,13.42
2019-06-15T00:47:28.167Z,13.43
2019-06-15T00:49:56.801Z,13.43
2019-06-15T00:52:25.498Z,13.46
2019-06-15T00:54:54.129Z,13.46
2019-06-15T00:57:24.386Z,13.47
2019-06-15T00:59:53.070Z,13.45
2019-06-15T01:02:21.702Z,13.45
2019-06-15T01:04:51.057Z,13.46
2019-06-15T01:07:21.880Z,13.48
2019-06-15T01:09:50.444Z,13.50
2019-06-15T01:12:19.250Z,13.51
2019-06-15T01:14:50.272Z,13.53
2019-06-15T01:17:18.916Z,13.54
2019-06-15T01:19:48.603Z,13.53
2019-06-15T01:22:18.478Z,13.54
2019-06-15T01:24:47.142Z,13.55
2019-06-15T01:27:15.778Z,13.55
2019-06-15T01:29:44.431Z,13.56
2019-06-15T01:32:13.123Z,13.55
2019-06-15T01:34:41.826Z,13.54
2019-06-15T01:37:10.444Z,13.54
2019-06-15T01:39:41.237Z,13.56
2019-06-15T01:42:09.889Z,13.57
2019-06-15T01:44:38.531Z,13.56
2019-06-15T01:47:07.106Z,13.55
2019-06-15T01:49:35.766Z,13.56
2019-06-15T01:52:04.563Z,13.57
2019-06-15T01:54:33.204Z,13.58
2019-06-15T01:57:03.748Z,13.57
2019-06-15T01:59:32.381Z,13.56
2019-06-15T02:02:01.015Z,13.58
2019-06-15T02:04:30.114Z,13.60
2019-06-15T02:06:58.814Z,13.61
2019-06-15T02:09:27.976Z,13.60
2019-06-15T02:11:57.470Z,13.59
2019-06-15T02:14:28.925Z,13.56
2019-06-15T02:16:57.610Z,13.55
2019-06-15T02:19:32.807Z,13.55
2019-06-15T02:22:03.951Z,13.55
2019-06-15T02:24:32.623Z,13.56
2019-06-15T02:27:01.238Z,13.58
2019-06-15T02:29:29.818Z,13.57
2019-06-15T02:31:59.340Z,13.58
2019-06-15T02:34:30.909Z,13.57
2019-06-15T02:36:59.563Z,13.55
2019-06-15T02:39:28.639Z,13.53
2019-06-15T02:41:57.279Z,13.52
2019-06-15T02:44:25.955Z,13.52
2019-06-15T02:46:56.186Z,13.52
2019-06-15T02:49:30.484Z,13.49
2019-06-15T02:52:04.462Z,13.48
2019-06-15T02:54:44.959Z,13.46
2019-06-15T02:57:13.641Z,13.43
2019-06-15T02:59:44.917Z,13.43
2019-06-15T03:02:20.468Z,13.45
2019-06-15T03:04:52.618Z,13.48
2019-06-15T03:07:21.480Z,13.48
2019-06-15T03:09:52.763Z,13.47
2019-06-15T03:12:24.806Z,13.48
2019-06-15T03:15:04.337Z,13.47
2019-06-15T03:17:35.706Z,13.48
2019-06-15T03:20:07.238Z,13.49
2019-06-15T03:22:40.148Z,13.46
2019-06-15T03:25:12.413Z,13.45
2019-06-15T03:27:46.059Z,13.47
2019-06-15T03:30:15.551Z,13.47
2019-06-15T03:35:44.616Z,13.40
2019-06-15T03:38:15.375Z,13.40
2019-06-15T03:40:43.980Z,13.40
2019-06-15T03:43:16.625Z,13.39
2019-06-15T03:45:45.286Z,13.39
2019-06-15T03:48:13.936Z,13.39
2019-06-15T03:50:42.948Z,13.36
2019-06-15T03:53:19.786Z,13.34
2019-06-15T03:55:50.355Z,13.33
2019-06-15T03:58:20.482Z,13.34
2019-06-15T04:00:53.067Z,13.36
2019-06-15T04:03:21.723Z,13.40
2019-06-15T04:05:50.259Z,13.41
2019-06-15T04:08:18.903Z,13.38
2019-06-15T04:10:48.239Z,13.35
2019-06-15T04:13:16.956Z,13.33
2019-06-15T04:15:47.116Z,13.32
2019-06-15T04:18:15.779Z,13.30
2019-06-15T04:20:44.382Z,13.27
2019-06-15T04:23:14.583Z,13.26
2019-06-15T04:25:47.833Z,13.25
2019-06-15T04:28:18.012Z,13.24
2019-06-15T04:30:47.221Z,13.24
2019-06-15T04:33:15.897Z,13.26
2019-06-15T04:35:44.522Z,13.28
2019-06-15T04:38:13.482Z,13.29
2019-06-15T04:40:44.968Z,13.29
2019-06-15T04:43:13.608Z,13.27
2019-06-15T04:45:42.269Z,13.27
2019-06-15T04:48:12.566Z,13.28
2019-06-15T04:50:41.213Z,13.30
2019-06-15T04:53:14.759Z,13.31
2019-06-15T04:55:45.041Z,13.30
2019-06-15T04:58:13.792Z,13.30
2019-06-15T05:00:44.295Z,13.29
2019-06-15T05:03:13.228Z,13.28
2019-06-15T05:05:43.829Z,13.28
2019-06-15T05:08:16.763Z,13.25
2019-06-15T05:10:45.894Z,13.22
2019-06-15T05:13:14.488Z,13.21
2019-06-15T05:15:43.113Z,13.21
2019-06-15T05:18:11.736Z,13.21
2019-06-15T05:20:40.390Z,13.19
2019-06-15T05:23:08.958Z,13.18
2019-06-15T05:25:39.221Z,13.18
2019-06-15T05:28:10.420Z,13.20
2019-06-15T05:30:40.916Z,13.26
2019-06-15T05:33:09.584Z,13.35
2019-06-15T05:35:38.144Z,13.44
2019-06-15T05:38:06.754Z,13.49
2019-06-15T05:40:35.345Z,13.54
2019-06-15T05:43:03.947Z,13.57
2019-06-15T05:45:32.578Z,13.58
2019-06-15T05:48:01.231Z,13.60
2019-06-15T05:50:33.052Z,13.59
2019-06-15T05:53:01.778Z,13.58
2019-06-15T05:55:30.388Z,13.60
2019-06-15T05:57:59.588Z,13.63
2019-06-15T06:00:28.323Z,13.64
2019-06-15T06:02:59.824Z,13.66
2019-06-15T06:05:28.308Z,13.71
2019-06-15T06:07:59.724Z,13.73
2019-06-15T06:10:28.346Z,13.78
2019-06-15T06:12:57.032Z,13.83
2019-06-15T06:15:26.899Z,13.89
2019-06-15T06:17:57.542Z,13.92
2019-06-15T06:20:27.214Z,13.94
2019-06-15T06:22:55.753Z,13.93
2019-06-15T06:25:24.314Z,13.94
2019-06-15T06:27:53.426Z,13.94
2019-06-15T06:30:25.038Z,13.96
2019-06-15T06:32:53.881Z,14.00
2019-06-15T06:35:22.485Z,14.01
2019-06-15T06:37:51.408Z,14.02
2019-06-15T06:40:21.555Z,14.03
2019-06-15T06:42:50.127Z,14.03
2019-06-15T06:45:18.782Z,14.05
2019-06-15T06:47:47.447Z,14.09
2019-06-15T06:50:17.797Z,14.10
2019-06-15T06:52:51.264Z,14.12
2019-06-15T06:55:19.854Z,14.15
2019-06-15T06:57:52.614Z,14.19
2019-06-15T07:00:19.085Z,14.30
2019-06-15T07:02:50.564Z,14.48
2019-06-15T07:05:19.213Z,14.68
2019-06-15T07:07:47.883Z,14.85
2019-06-15T07:10:16.458Z,14.97
2019-06-15T07:12:46.165Z,15.01
2019-06-15T07:15:15.057Z,15.04
2019-06-15T07:17:44.430Z,15.13
2019-06-15T07:20:13.982Z,15.20
2019-06-15T07:22:42.803Z,15.25
2019-06-15T07:25:13.120Z,15.32
2019-06-15T07:27:41.849Z,15.37
2019-06-15T07:30:12.906Z,15.53
2019-06-15T07:32:41.698Z,15.53
2019-06-15T07:35:10.623Z,15.61
2019-06-15T07:37:40.661Z,15.73
2019-06-15T07:40:09.869Z,15.83
2019-06-15T07:42:47.415Z,15.84
2019-06-15T07:45:16.424Z,15.90
2019-06-15T07:47:45.120Z,15.87
2019-06-15T07:50:14.621Z,15.83
2019-06-15T07:52:44.654Z,15.77
2019-06-15T07:55:13.398Z,15.73
2019-06-15T07:57:43.193Z,15.62
2019-06-15T08:09:15.362Z,15.49
2019-06-15T08:11:57.736Z,15.50
2019-06-15T08:17:29.840Z,15.54
2019-06-15T08:19:58.711Z,15.61
2019-06-15T08:22:29.463Z,15.72
2019-06-15T08:24:59.897Z,16.19
2019-06-15T08:27:33.136Z,16.19
2019-06-15T08:30:04.245Z,16.48
2019-06-15T08:32:32.984Z,16.68
2019-06-15T08:35:03.479Z,16.82
2019-06-15T08:37:32.111Z,16.82
2019-06-15T08:40:02.910Z,16.75
2019-06-15T08:42:45.131Z,16.61
2019-06-15T08:45:14.172Z,16.51
2019-06-15T08:47:42.930Z,16.54
2019-06-15T08:50:15.757Z,16.70
2019-06-15T08:52:51.532Z,16.92
2019-06-15T08:55:23.598Z,17.13
2019-06-15T08:57:54.837Z,17.29
2019-06-15T09:00:25.848Z,17.35
2019-06-15T09:02:55.974Z,17.42
2019-06-15T09:05:25.765Z,17.49
2019-06-15T09:07:54.597Z,17.57
2019-06-15T09:10:23.345Z,17.65
2019-06-15T09:12:56.850Z,17.77
2019-06-15T09:15:40.960Z,17.85
2019-06-15T09:18:10.996Z,17.96
2019-06-15T09:20:42.194Z,18.00
2019-06-15T09:23:10.974Z,18.05
2019-06-15T09:25:41.520Z,18.07
2019-06-15T09:28:14.552Z,18.08
2019-06-15T09:30:45.377Z,18.12
2019-06-15T09:33:14.143Z,18.15
2019-06-15T09:35:52.249Z,18.09
2019-06-15T09:38:22.295Z,18.02
2019-06-15T09:40:53.072Z,17.89
2019-06-15T09:43:22.492Z,17.78
2019-06-15T09:45:51.227Z,17.69
2019-06-15T09:48:20.842Z,17.60
2019-06-15T09:50:51.658Z,17.52
2019-06-15T09:53:20.385Z,17.49
2019-06-15T09:55:49.620Z,17.50
2019-06-15T09:58:20.316Z,17.52
2019-06-15T10:03:38.404Z,17.49
2019-06-15T10:06:11.548Z,17.53
2019-06-15T10:08:38.840Z,17.61
2019-06-15T10:11:07.584Z,17.71
2019-06-15T10:13:36.477Z,17.82
2019-06-15T10:16:06.015Z,17.87
2019-06-15T10:18:38.969Z,17.94
2019-06-15T10:21:09.358Z,18.03
2019-06-15T10:23:41.154Z,18.14
2019-06-15T10:26:10.034Z,18.24
2019-06-15T10:28:41.191Z,18.29
2019-06-15T10:31:10.017Z,18.29
2019-06-15T10:33:41.449Z,18.22
2019-06-15T10:36:15.413Z,18.10
2019-06-15T10:38:44.284Z,17.98
2019-06-15T10:41:19.306Z,17.87
2019-06-15T10:43:48.082Z,17.79
2019-06-15T10:46:17.425Z,17.75
2019-06-15T10:48:48.391Z,17.76
2019-06-15T10:51:17.304Z,17.75
2019-06-15T10:53:45.925Z,17.75
2019-06-15T10:56:15.089Z,17.73
2019-06-15T10:58:43.964Z,17.70
2019-06-15T11:01:25.299Z,17.72
2019-06-15T11:03:54.109Z,17.74
2019-06-15T11:06:22.841Z,17.76
2019-06-15T11:08:54.905Z,17.78
2019-06-15T11:11:24.216Z,17.78
2019-06-15T11:13:53.080Z,17.82
2019-06-15T11:16:25.975Z,17.89
2019-06-15T11:18:55.717Z,17.95
2019-06-15T11:21:26.959Z,18.00
2019-06-15T11:23:58.712Z,18.05
2019-06-15T11:26:29.023Z,18.06
2019-06-15T11:28:58.780Z,18.03
2019-06-15T11:31:30.703Z,18.01
2019-06-15T11:33:59.448Z,18.00
2019-06-15T11:36:28.162Z,18.01
2019-06-15T11:38:57.100Z,17.99
2019-06-15T11:41:28.976Z,17.97
2019-06-15T11:43:59.340Z,17.98
2019-06-15T11:46:29.317Z,17.98
2019-06-15T11:48:59.848Z,17.98
2019-06-15T11:51:30.047Z,17.96
2019-06-15T11:53:59.292Z,17.95
2019-06-15T11:56:28.028Z,17.98
2019-06-15T11:58:56.906Z,17.99
2019-06-15T12:01:26.208Z,18.02
2019-06-15T12:03:57.668Z,18.03
2019-06-15T12:06:31.604Z,18.03
2019-06-15T12:09:00.394Z,17.99
2019-06-15T12:11:29.494Z,17.99
2019-06-15T12:13:58.570Z,18.01
2019-06-15T12:16:32.028Z,18.05
2019-06-15T12:19:01.254Z,18.06
2019-06-15T12:21:30.106Z,18.03
2019-06-15T12:24:01.489Z,17.97
2019-06-15T12:26:36.360Z,17.96
2019-06-15T12:29:07.921Z,17.95
2019-06-15T12:31:38.723Z,17.94
2019-06-15T12:34:08.715Z,17.92
2019-06-15T12:36:37.610Z,17.92
2019-06-15T12:39:19.248Z,17.88
2019-06-15T12:41:50.846Z,17.83
2019-06-15T12:44:19.670Z,17.78
2019-06-15T12:46:52.348Z,17.77
2019-06-15T12:49:23.508Z,17.77
2019-06-15T12:51:53.565Z,17.75
2019-06-15T12:54:22.480Z,17.74
2019-06-15T12:56:51.300Z,17.73
2019-06-15T12:59:26.833Z,17.72
2019-06-15T13:01:57.386Z,17.72
2019-06-15T13:04:26.118Z,17.74
2019-06-15T13:06:56.366Z,17.74
2019-06-15T13:09:26.132Z,17.74
2019-06-15T13:11:59.832Z,17.73
2019-06-15T13:14:31.675Z,17.71
2019-06-15T13:17:03.144Z,17.70
2019-06-15T13:19:31.929Z,17.70
2019-06-15T13:22:06.213Z,17.69
2019-06-15T13:24:33.387Z,17.70
2019-06-15T13:27:04.941Z,17.70
2019-06-15T13:29:34.185Z,17.68
2019-06-15T13:32:03.061Z,17.68
2019-06-15T13:34:32.406Z,17.73
2019-06-15T13:37:03.903Z,17.86
2019-06-15T13:39:32.829Z,17.90
2019-06-15T13:42:04.281Z,17.95
2019-06-15T13:44:32.938Z,17.97
2019-06-15T13:47:01.587Z,18.04
2019-06-15T13:49:30.861Z,18.13
2019-06-15T13:51:59.516Z,18.17
2019-06-15T13:54:28.338Z,18.15
2019-06-15T13:56:56.978Z,18.12
2019-06-15T13:59:35.197Z,18.06
2019-06-15T14:02:03.843Z,18.00
2019-06-15T14:04:36.884Z,17.97
2019-06-15T14:07:09.202Z,17.90
2019-06-15T14:09:38.625Z,17.86
2019-06-15T14:12:08.720Z,17.86
2019-06-15T14:14:41.754Z,17.81
2019-06-15T14:17:11.805Z,17.77
2019-06-15T14:19:40.527Z,17.72
2019-06-15T14:22:11.768Z,17.66
2019-06-15T14:24:40.376Z,17.63
2019-06-15T14:27:15.161Z,17.63
2019-06-15T14:29:46.528Z,17.62
2019-06-15T14:32:15.254Z,17.61
2019-06-15T14:34:48.967Z,17.59
2019-06-15T14:37:21.513Z,17.59
2019-06-15T14:39:50.093Z,17.58
2019-06-15T14:42:20.563Z,17.57
2019-06-15T14:44:49.325Z,17.57
2019-06-15T14:47:19.271Z,17.59
2019-06-15T14:49:48.641Z,17.61
2019-06-15T14:52:19.368Z,17.64
2019-06-15T14:54:49.445Z,17.67
2019-06-15T14:57:18.081Z,17.70
2019-06-15T14:59:59.412Z,17.72
2019-06-15T15:02:18.831Z,17.72
2019-06-15T15:04:47.597Z,17.71
2019-06-15T15:07:19.396Z,17.72
2019-06-15T15:09:50.088Z,17.69
2019-06-15T15:12:18.935Z,17.65
2019-06-15T15:14:48.011Z,17.60
2019-06-15T15:17:17.594Z,17.56
2019-06-15T15:19:47.883Z,17.57
2019-06-15T15:22:18.374Z,17.59
2019-06-15T15:24:49.381Z,17.61
2019-06-15T15:27:20.901Z,17.61
2019-06-15T15:29:51.142Z,17.65
2019-06-15T15:32:27.369Z,17.69
2019-06-15T15:34:52.100Z,17.71
2019-06-15T15:37:20.744Z,17.71
2019-06-15T15:39:50.215Z,17.69
2019-06-15T15:42:20.943Z,17.68
2019-06-15T15:44:53.236Z,17.71
2019-06-15T15:47:23.089Z,17.75
2019-06-15T15:49:51.765Z,17.80
2019-06-15T15:52:20.511Z,17.88
2019-06-15T15:54:49.271Z,17.94
2019-06-15T15:57:19.465Z,17.99
2019-06-15T15:59:49.461Z,18.01
2019-06-15T16:02:18.106Z,18.00
2019-06-15T16:04:46.993Z,18.01
2019-06-15T16:07:16.866Z,18.00
2019-06-15T16:09:50.297Z,18.01
2019-06-15T16:12:28.553Z,18.00
2019-06-15T16:15:00.044Z,18.00
2019-06-15T16:17:32.330Z,17.98
2019-06-15T16:20:03.501Z,17.97
2019-06-15T16:22:32.257Z,17.96
2019-06-15T16:25:00.922Z,18.00
2019-06-15T16:27:29.533Z,18.01
2019-06-15T16:30:06.513Z,18.01
2019-06-15T16:32:37.402Z,18.02
2019-06-15T16:35:08.197Z,17.98
2019-06-15T16:37:38.797Z,17.94
2019-06-15T16:40:08.893Z,17.90
2019-06-15T16:42:39.930Z,17.86
2019-06-15T16:45:12.858Z,17.80
2019-06-15T16:47:43.096Z,17.74
2019-06-15T16:50:16.056Z,17.69
2019-06-15T16:52:43.773Z,17.66
2019-06-15T16:55:36.869Z,17.64
2019-06-15T16:58:07.537Z,17.65
2019-06-15T17:00:36.354Z,17.61
2019-06-15T17:03:19.807Z,17.56
2019-06-15T17:05:37.117Z,17.49
2019-06-15T17:08:06.936Z,17.42
2019-06-15T17:10:40.507Z,17.39
2019-06-15T17:13:17.064Z,17.38
2019-06-15T17:15:46.858Z,17.39
2019-06-15T17:18:15.746Z,17.41
2019-06-15T17:20:58.927Z,17.43
2019-06-15T17:23:27.902Z,17.44
2019-06-15T17:25:58.563Z,17.47
2019-06-15T17:28:27.428Z,17.49
2019-06-15T17:30:59.303Z,17.52
2019-06-15T17:33:37.576Z,17.56
2019-06-15T17:36:03.858Z,17.57
2019-06-15T17:38:36.970Z,17.55
2019-06-15T17:41:08.651Z,17.54
2019-06-15T17:43:37.223Z,17.51
2019-06-15T17:46:07.531Z,17.47
2019-06-15T17:48:39.303Z,17.43
2019-06-15T17:51:09.555Z,17.40
2019-06-15T17:53:40.887Z,17.38
2019-06-15T17:56:11.083Z,17.37
2019-06-15T17:58:42.781Z,17.36
2019-06-15T18:01:17.039Z,17.34
2019-06-15T18:03:53.948Z,17.32
2019-06-15T18:06:17.459Z,17.31
2019-06-15T18:08:46.500Z,17.29
2019-06-15T18:11:16.579Z,17.26
2019-06-15T18:13:47.300Z,17.27
2019-06-15T18:16:18.013Z,17.28
2019-06-15T18:18:47.371Z,17.26
2019-06-15T18:21:20.056Z,17.25
2019-06-15T18:23:48.822Z,17.26
2019-06-15T18:26:19.518Z,17.27
2019-06-15T18:28:49.123Z,17.26
2019-06-15T18:31:28.551Z,17.24
2019-06-15T18:34:06.449Z,17.22
2019-06-15T18:36:31.176Z,17.20
2019-06-15T18:39:05.627Z,17.18
2019-06-15T18:41:37.172Z,17.17
2019-06-15T18:44:07.880Z,17.14
2019-06-15T18:46:36.889Z,17.09
2019-06-15T18:49:08.567Z,17.05
2019-06-15T18:51:39.287Z,17.03
2019-06-15T18:54:12.467Z,17.01
2019-06-15T18:56:47.327Z,16.98
2019-06-15T18:59:19.000Z,16.96
2019-06-15T19:01:47.645Z,16.94
2019-06-15T19:04:26.955Z,16.95
2019-06-15T19:06:56.854Z,16.95
2019-06-15T19:09:27.147Z,16.94
2019-06-15T19:11:57.706Z,16.91
2019-06-15T19:14:27.103Z,16.90
2019-06-15T19:16:56.794Z,16.88
2019-06-15T19:19:26.857Z,16.86
2019-06-15T19:21:57.151Z,16.80
2019-06-15T19:24:29.101Z,16.76
2019-06-15T19:27:00.522Z,16.73
2019-06-15T19:29:31.896Z,16.69
2019-06-15T19:32:03.500Z,16.65
2019-06-15T19:34:44.269Z,16.61
2019-06-15T19:37:12.617Z,16.57
2019-06-15T19:39:46.322Z,16.50
2019-06-15T19:42:17.506Z,16.47
2019-06-15T19:44:47.495Z,16.46
2019-06-15T19:50:50.870Z,16.37
2019-06-15T19:53:21.027Z,16.33
2019-06-15T19:55:49.685Z,16.34
2019-06-15T19:58:29.526Z,16.30
2019-06-15T20:01:09.271Z,16.26
2019-06-15T20:03:49.730Z,16.26
2019-06-15T20:06:21.058Z,16.27
2019-06-15T20:11:42.245Z,16.18
2019-06-15T20:14:14.815Z,16.07
2019-06-15T20:19:40.643Z,15.96
2019-06-15T20:22:24.226Z,15.91
2019-06-15T20:24:58.829Z,15.87
2019-06-15T20:27:50.019Z,15.81
2019-06-15T20:30:22.054Z,15.73
2019-06-15T20:33:09.383Z,15.67
2019-06-15T20:35:39.754Z,15.63
2019-06-15T20:38:11.463Z,15.56
2019-06-15T20:40:52.691Z,15.50
2019-06-15T20:43:21.467Z,15.48
2019-06-15T20:45:53.108Z,15.48
2019-06-15T20:48:23.411Z,15.48
2019-06-15T20:51:10.061Z,15.47
2019-06-15T20:53:40.645Z,15.46
2019-06-15T20:56:13.687Z,15.46
2019-06-15T20:58:43.335Z,15.45
2019-06-15T21:01:18.409Z,15.46
2019-06-15T21:03:49.959Z,15.47
2019-06-15T21:06:22.100Z,15.43
2019-06-15T21:08:57.583Z,15.37
2019-06-15T21:11:30.066Z,15.30
2019-06-15T21:14:07.098Z,15.25
2019-06-15T21:16:41.753Z,15.22
2019-06-15T21:19:12.546Z,15.23
2019-06-15T21:21:43.702Z,15.24
2019-06-15T21:24:17.290Z,15.23
2019-06-15T21:26:51.110Z,15.15
2019-06-15T21:29:20.758Z,15.15
2019-06-15T21:31:50.580Z,15.12
2019-06-15T21:34:23.076Z,15.08
2019-06-15T21:36:56.583Z,15.02
2019-06-15T21:39:27.904Z,14.84
2019-06-15T21:42:07.188Z,14.84
2019-06-15T21:44:38.465Z,14.85
2019-06-15T21:47:17.498Z,14.85
2019-06-15T21:49:46.879Z,14.84
2019-06-15T21:52:18.037Z,14.85
2019-06-15T21:57:37.636Z,14.77
2019-06-15T22:00:12.377Z,14.81
2019-06-15T22:02:46.930Z,14.81
2019-06-15T22:05:21.181Z,14.81
2019-06-15T22:07:50.401Z,14.70
2019-06-15T22:10:22.867Z,14.70
2019-06-15T22:12:58.040Z,14.60
2019-06-15T22:15:33.654Z,14.53
2019-06-15T22:18:02.374Z,14.44
2019-06-15T22:20:47.102Z,14.44
2019-06-15T22:23:19.198Z,14.41
2019-06-15T22:25:50.492Z,14.37
2019-06-15T22:28:21.184Z,14.34
2019-06-15T22:30:51.893Z,14.27
2019-06-15T22:33:36.206Z,14.19
2019-06-15T22:36:21.267Z,14.12
2019-06-15T22:38:41.053Z,14.12
2019-06-15T22:41:11.787Z,14.02
2019-06-15T22:43:45.999Z,14.02
2019-06-15T22:46:16.431Z,13.99
2019-06-15T22:48:50.087Z,13.87
2019-06-15T22:51:27.303Z,13.87
2019-06-15T22:53:56.604Z,13.82
2019-06-15T22:56:28.544Z,13.78
2019-06-15T22:58:57.291Z,13.75
2019-06-15T23:01:27.009Z,13.68
2019-06-15T23:03:57.143Z,13.61
2019-06-15T23:06:38.746Z,13.57
2019-06-15T23:09:12.396Z,13.54
2019-06-15T23:11:46.850Z,13.52
2019-06-15T23:14:17.312Z,13.52
2019-06-15T23:16:47.452Z,13.52
2019-06-15T23:19:17.694Z,13.52
2019-06-15T23:21:48.313Z,13.51
2019-06-15T23:24:27.252Z,13.49
2019-06-15T23:26:57.128Z,13.48
2019-06-15T23:29:29.534Z,13.48
2019-06-15T23:32:06.522Z,13.45
2019-06-15T23:34:41.012Z,13.43
2019-06-15T23:37:22.561Z,13.41
2019-06-15T23:40:10.302Z,13.42
2019-06-15T23:42:39.501Z,13.41
2019-06-15T23:45:11.595Z,13.41
2019-06-15T23:47:46.659Z,13.40
2019-06-15T23:50:16.928Z,13.40
2019-06-15T23:52:47.038Z,13.40
2019-06-15T23:55:16.379Z,13.40
2019-06-15T23:57:48.319Z,13.44
